East Haddam, CT (06423)

6:05 PM EST on February 05, 2016 (GMT -0500)
Hadlyme | | Change Station
CLOSE
Current Station
Personal Weather Station
Location: East Haddam, CT
Elevation: 312 ft
Nearby Weather Stations

Elev 312 ft 41.44 °N, 72.38 °W | Updated 1 minute ago

Partly Cloudy
Partly Cloudy
31.8 °F
Feels Like 32 °F
N
0.0
Wind Variable Wind from WSW
Gusts 0.0 mph

Today
High -- | Low -- °F
--% Chance of Precip.
Yesterday
High -- | Low -- °F
Precip. -- in
Pressure 30.13 in
Visibility 10.0 miles
Clouds Clear
Windchill 32 °F
Dew Point 31 °F
Humidity 98%
Rainfall 0.12 in
Snow Depth Not available.
6:57 AM 5:10 PM
Waning Crescent, 9% visible
METAR KSNC 052255Z AUTO 31007G18KT 10SM CLR 00/M07 A3013 RMK AO2 PWINO PNO
Pressure 30.13 in
Visibility 10.0 miles
Clouds Clear
Windchill 32 °F
Dew Point 31 °F
Humidity 98%
Rainfall 0.12 in
Snow Depth Not available.
6:57 AM 5:10 PM
Waning Crescent, 9% visible
METAR KSNC 052255Z AUTO 31007G18KT 10SM CLR 00/M07 A3013 RMK AO2 PWINO PNO

10-Day Weather Forecast

Almanac

Astronomy

Feb. 05, 2016 Rise Set
Actual Time
Civil Twilight
Nautical Twilight
Astronomical Twilight
Moon
Length of Visible Light
Length of Day
Tomorrow will be .
, % of the Moon is Illuminated

Today's Extremes

State Highs State Lows

Community

WunderPhotos

Upload Photos

1,890,879 photos uploaded!

WunderBlog® & News

Nearby

Air Quality

  Air Quality AQ Index Pollutant
Not available.

Snow Depth

Station Depth Elevation

Earthquake Activity

City Distance Mag. Time & Date
Minimum magnitude displayed is 2.5.

Coastal Water Temperatures

Place Temperature

Stations

Nearby Weather Stations

Station Location Temp. Windchill Dew Point Humidity Wind Precip. Elev Updated Type
                   

Watches & Warnings

Special Statement
Issued: 2:51 PM EST Feb. 5, 2016 – National Weather Service

... Gusty winds will continue to bring down snow laden tree limbs
and power lines into early this evening...

The heavy wet snowfall... combined with moderate northerly winds
of 10 to 20 mph with gusts into the 30s... will continue to down
tree limbs and power lines into early this evening. Those
venturing out are urged to be cognizant of this dangerous and
potentially deadly hazard.



251 PM EST Fri Feb 5 2016

... Gusty winds will continue to bring down snow laden tree limbs
and power lines into early this evening...

The heavy wet snowfall... combined with moderate northerly winds
of 10 to 20 mph with gusts into the 30s... will continue to down
tree limbs and power lines into early this evening. Those
venturing out are urged to be cognizant of this dangerous and
potentially deadly hazard.